Time;durP1;ratioP1;P1;durP2;ratioP2;P2;SDS_P1;SDS_P2;PMS_P1;PMS_P2;Temp;Humidity;BMP_temperature;BMP_pressure;BME280_temperature;BME280_humidity;BME280_pressure;Samples;Min_cycle;Max_cycle;Signal;HPM_P1;HPM_P2
2022/03/17 00:00:22;;;;;;;92.27;45.37;;;;;;;3.53;100.00;102017.13;5066791;28;20581;-74
2022/03/17 00:02:50;;;;;;;71.23;37.07;;;;;;;3.50;100.00;102017.09;5061469;28;20574;-74
2022/03/17 00:05:16;;;;;;;73.17;36.07;;;;;;;3.51;100.00;102036.00;5065104;28;20753;-74
2022/03/17 00:07:44;;;;;;;69.63;36.13;;;;;;;3.49;100.00;102035.94;5065288;28;20698;-74
2022/03/17 00:10:13;;;;;;;74.20;37.53;;;;;;;3.48;100.00;102030.75;5063979;28;20695;-74
2022/03/17 00:12:40;;;;;;;66.63;35.43;;;;;;;3.45;100.00;102028.97;5063726;28;20205;-74
2022/03/17 00:15:08;;;;;;;75.47;39.93;;;;;;;3.44;100.00;102032.38;5070037;28;20208;-74
2022/03/17 00:17:35;;;;;;;69.57;35.50;;;;;;;3.45;100.00;102028.97;5064521;28;20198;-74
2022/03/17 00:20:03;;;;;;;68.67;34.07;;;;;;;3.46;100.00;102027.28;5064891;28;20203;-74
2022/03/17 00:22:30;;;;;;;65.47;34.27;;;;;;;3.46;100.00;102027.28;5061897;28;20202;-74
2022/03/17 00:24:56;;;;;;;69.73;35.53;;;;;;;3.45;100.00;102028.97;5063664;28;20947;-75
2022/03/17 00:27:23;;;;;;;67.07;35.07;;;;;;;3.40;100.00;102028.84;5066949;28;20596;-74
2022/03/17 00:29:50;;;;;;;63.80;32.40;;;;;;;3.38;100.00;102038.25;5045547;28;20198;-74
2022/03/17 00:32:17;;;;;;;62.67;32.77;;;;;;;3.36;100.00;102023.56;5065491;28;20303;-75
2022/03/17 00:37:25;;;;;;;63.60;31.60;;;;;;;3.31;100.00;102020.88;5048803;28;20685;-74
2022/03/17 00:39:52;;;;;;;60.20;31.97;;;;;;;3.28;100.00;102022.50;5046283;28;20688;-74
2022/03/17 00:42:19;;;;;;;61.00;32.23;;;;;;;3.23;100.00;102032.69;5049922;28;20870;-74
2022/03/17 00:44:47;;;;;;;64.23;32.27;;;;;;;3.19;100.00;102033.44;5064678;28;20249;-74
2022/03/17 00:47:13;;;;;;;59.77;31.03;;;;;;;3.14;100.00;102041.06;5062780;28;20271;-74
2022/03/17 00:49:40;;;;;;;58.13;32.97;;;;;;;3.09;100.00;102044.34;5065162;28;20230;-74
2022/03/17 00:52:10;;;;;;;63.27;34.20;;;;;;;3.00;100.00;102044.97;5048022;28;20202;-74
2022/03/17 00:54:38;;;;;;;65.20;34.23;;;;;;;2.97;100.00;102050.03;5065057;28;20202;-74
2022/03/17 00:57:04;;;;;;;75.10;37.73;;;;;;;2.92;100.00;102055.06;5045074;28;20234;-74
2022/03/17 00:59:31;;;;;;;69.30;36.67;;;;;;;2.86;100.00;102056.59;5046725;28;20309;-74
2022/03/17 01:01:57;;;;;;;69.57;35.57;;;;;;;2.78;100.00;102056.34;5064772;28;20194;-74
2022/03/17 01:04:24;;;;;;;64.67;34.57;;;;;;;2.70;100.00;102061.28;5063052;28;20301;-74
2022/03/17 01:06:50;;;;;;;68.93;35.83;;;;;;;2.64;100.00;102062.00;5064750;28;20206;-74
2022/03/17 01:09:17;;;;;;;62.07;32.40;;;;;;;2.56;100.00;102063.47;5062628;28;20218;-74
2022/03/17 01:11:45;;;;;;;64.23;33.87;;;;;;;2.53;100.00;102068.50;5064566;28;20636;-74
2022/03/17 01:14:13;;;;;;;62.87;31.97;;;;;;;2.50;100.00;102060.72;5066599;28;20239;-74
2022/03/17 01:16:39;;;;;;;62.37;33.30;;;;;;;2.47;100.00;102065.75;5046678;28;20198;-74
2022/03/17 01:19:06;;;;;;;55.17;31.00;;;;;;;2.40;100.00;102075.00;5049381;28;20218;-74
2022/03/17 01:21:32;;;;;;;62.40;34.00;;;;;;;2.35;100.00;102075.69;5060518;28;20190;-74
2022/03/17 01:23:59;;;;;;;61.87;31.53;;;;;;;2.32;100.00;102065.28;5064763;28;20214;-74
2022/03/17 01:26:26;;;;;;;56.87;30.77;;;;;;;2.31;100.00;102066.13;5060575;28;20691;-74
2022/03/17 01:28:54;;;;;;;59.80;31.20;;;;;;;2.28;100.00;102060.03;5064895;28;20221;-74
2022/03/17 01:31:22;;;;;;;67.93;35.07;;;;;;;2.27;100.00;102058.31;5063696;28;20225;-74
2022/03/17 01:33:48;;;;;;;72.80;35.37;;;;;;;2.28;100.00;102056.59;5062208;28;20563;-74
2022/03/17 01:36:15;;;;;;;65.03;33.10;;;;;;;2.27;100.00;102055.72;5065033;28;20236;-74
2022/03/17 01:38:41;;;;;;;64.70;33.67;;;;;;;2.27;100.00;102058.31;5065209;28;20242;-74
2022/03/17 01:41:07;;;;;;;66.43;34.33;;;;;;;2.27;100.00;102060.88;5065697;28;20206;-74
2022/03/17 01:43:34;;;;;;;68.50;34.87;;;;;;;2.34;100.00;102050.75;5063187;28;20217;-74
2022/03/17 01:46:02;;;;;;;70.43;36.30;;;;;;;2.34;100.00;102038.78;5064849;28;20585;-74
2022/03/17 01:48:28;;;;;;;73.63;34.73;;;;;;;2.31;100.00;102032.66;5065673;28;20784;-74
2022/03/17 01:50:55;;;;;;;68.83;35.00;;;;;;;2.31;100.00;102041.25;5046596;28;20207;-74
2022/03/17 01:53:23;;;;;;;70.93;36.37;;;;;;;2.34;100.00;102040.47;5064546;28;20205;-74
2022/03/17 01:55:50;;;;;;;78.13;37.10;;;;;;;2.34;100.00;102038.78;5065314;28;20941;-74
2022/03/17 01:58:16;;;;;;;74.20;36.20;;;;;;;2.33;100.00;102047.31;5071262;28;20225;-74
2022/03/17 02:00:44;;;;;;;72.37;36.87;;;;;;;2.38;100.00;102044.91;5062799;28;20206;-75
2022/03/17 02:03:12;;;;;;;75.03;37.17;;;;;;;2.36;100.00;102036.25;5071101;28;20227;-75
2022/03/17 02:05:39;;;;;;;76.23;37.70;;;;;;;2.28;100.00;102039.44;5064835;28;20205;-74
2022/03/17 02:08:08;;;;;;;76.77;37.43;;;;;;;2.25;100.00;102036.81;5075946;28;20700;-74
2022/03/17 02:13:08;;;;;;;71.33;35.87;;;;;;;2.21;100.00;102029.78;5067059;28;20330;-74
2022/03/17 02:13:20;;;;;;;92.87;46.47;;;;;;;2.23;100.00;102037.56;5066940;28;20713;-74
2022/03/17 02:15:50;;;;;;;82.13;43.07;;;;;;;2.25;100.00;102028.19;5071618;28;20301;-74
2022/03/17 02:18:19;;;;;;;80.90;41.83;;;;;;;2.20;100.00;102028.06;5065643;28;20226;-74
2022/03/17 02:20:45;;;;;;;75.67;38.87;;;;;;;2.17;100.00;102029.66;5066371;28;20676;-74
2022/03/17 02:25:58;;;;;;;77.27;40.30;;;;;;;2.10;100.00;102023.47;5061773;28;20209;-74
2022/03/17 02:28:26;;;;;;;77.73;39.30;;;;;;;2.06;100.00;102022.50;5064298;28;20229;-74
2022/03/17 02:30:53;;;;;;;75.57;39.10;;;;;;;2.02;100.00;102022.34;5063655;28;20204;-74
2022/03/17 02:33:20;;;;;;;80.03;39.07;;;;;;;2.02;100.00;102018.09;5065686;28;20288;-75
2022/03/17 02:35:49;;;;;;;81.83;38.67;;;;;;;2.04;100.00;102025.81;5063020;28;20199;-74
2022/03/17 02:38:17;;;;;;;78.20;38.23;;;;;;;2.10;100.00;102022.59;5063589;28;20704;-74
2022/03/17 02:40:45;;;;;;;87.43;39.73;;;;;;;2.08;100.00;102023.41;5064616;28;20209;-74
2022/03/17 02:43:14;;;;;;;82.90;41.40;;;;;;;2.05;100.00;102014.72;5047990;28;20692;-74
2022/03/17 02:45:42;;;;;;;88.13;39.00;;;;;;;2.04;100.00;102020.69;5049810;28;21001;-74
2022/03/17 02:48:09;;;;;;;93.20;41.27;;;;;;;2.04;100.00;102021.56;5042597;28;20249;-74
2022/03/17 02:50:37;;;;;;;84.77;41.57;;;;;;;2.06;100.00;102019.91;5061486;28;20201;-74
2022/03/17 02:53:06;;;;;;;87.03;39.97;;;;;;;2.02;100.00;102005.22;5062162;28;20197;-74
2022/03/17 02:55:34;;;;;;;88.53;41.53;;;;;;;2.04;100.00;102016.44;5062246;28;20940;-74
2022/03/17 02:58:01;;;;;;;83.60;40.23;;;;;;;2.02;100.00;102010.38;5064279;28;20221;-74
2022/03/17 03:00:27;;;;;;;93.97;42.30;;;;;;;1.99;100.00;102006.81;5061732;28;20233;-74
2022/03/17 03:02:54;;;;;;;86.67;40.97;;;;;;;1.99;100.00;102015.41;5044132;28;20677;-74
2022/03/17 03:05:21;;;;;;;85.67;41.73;;;;;;;2.00;100.00;102013.69;5060412;28;20289;-74
2022/03/17 03:07:48;;;;;;;82.83;42.00;;;;;;;1.97;100.00;102011.91;5064889;28;20635;-74
2022/03/17 03:10:14;;;;;;;90.90;41.47;;;;;;;1.98;100.00;102015.34;5063579;28;20199;-74
2022/03/17 03:12:42;;;;;;;89.63;44.27;;;;;;;2.00;100.00;102017.13;5063029;28;20198;-74
2022/03/17 03:15:09;;;;;;;93.20;43.23;;;;;;;2.01;100.00;102020.59;5064081;28;20583;-74
2022/03/17 03:17:36;;;;;;;89.93;42.97;;;;;;;2.00;100.00;102016.28;5062186;28;20210;-74
2022/03/17 03:20:03;;;;;;;89.27;43.63;;;;;;;2.00;100.00;102021.41;5048424;28;20216;-74
2022/03/17 03:22:36;;;;;;;92.83;44.90;;;;;;;2.00;100.00;102022.28;5047879;28;20210;-74
2022/03/17 03:25:03;;;;;;;91.70;44.60;;;;;;;2.04;100.00;102016.44;5064132;28;20215;-74
2022/03/17 03:27:29;;;;;;;95.27;45.33;;;;;;;2.10;100.00;102020.88;5073083;28;20598;-74
2022/03/17 03:29:58;;;;;;;103.80;45.43;;;;;;;2.09;100.00;102021.69;5067823;28;20220;-74
2022/03/17 03:32:27;;;;;;;97.93;45.53;;;;;;;2.09;100.00;102021.69;5065907;28;20195;-74
2022/03/17 03:34:54;;;;;;;105.50;46.43;;;;;;;2.09;100.00;102024.28;5067363;28;20190;-74
2022/03/17 03:37:23;;;;;;;100.10;44.47;;;;;;;2.07;100.00;102029.38;5066602;28;20316;-74
2022/03/17 03:39:50;;;;;;;102.30;46.53;;;;;;;2.09;100.00;102021.69;5078962;28;20213;-74
2022/03/17 03:42:17;;;;;;;109.13;46.33;;;;;;;2.12;100.00;102020.94;5066270;28;20201;-74
2022/03/17 03:44:43;;;;;;;100.53;46.47;;;;;;;2.10;100.00;102012.31;5064090;28;20218;-74
2022/03/17 03:47:11;;;;;;;103.53;46.13;;;;;;;2.10;100.00;102014.88;5066850;28;20201;-74
2022/03/17 03:49:39;;;;;;;105.83;47.13;;;;;;;2.10;100.00;102014.88;5065369;28;20234;-74
2022/03/17 03:52:07;;;;;;;97.90;46.03;;;;;;;2.08;100.00;102022.53;5062720;28;20195;-74
2022/03/17 03:54:33;;;;;;;95.70;43.87;;;;;;;2.06;100.00;102021.63;5065624;28;20436;-74
2022/03/17 03:57:00;;;;;;;96.43;46.60;;;;;;;2.03;100.00;102017.25;5067043;28;20207;-74
2022/03/17 03:59:28;;;;;;;94.97;45.03;;;;;;;1.99;100.00;102010.25;5063877;28;20575;-74
2022/03/17 04:01:56;;;;;;;96.40;45.13;;;;;;;1.99;100.00;102010.25;5063549;28;20202;-74
2022/03/17 04:04:25;;;;;;;92.87;44.40;;;;;;;1.96;100.00;102020.44;5060321;28;20224;-74
2022/03/17 04:06:54;;;;;;;90.83;43.83;;;;;;;1.93;100.00;102019.47;5065679;28;20190;-74
2022/03/17 04:09:24;;;;;;;92.27;43.53;;;;;;;1.88;100.00;102021.91;5065682;28;20210;-74
2022/03/17 04:11:51;;;;;;;84.77;43.27;;;;;;;1.83;100.00;102018.31;5066670;28;20727;-74
2022/03/17 04:14:17;;;;;;;89.33;44.00;;;;;;;1.81;100.00;102023.41;5068864;28;20672;-74
2022/03/17 04:16:45;;;;;;;85.50;44.73;;;;;;;1.81;100.00;102022.53;5066625;28;20719;-74
2022/03/17 04:19:12;;;;;;;92.03;44.33;;;;;;;1.80;100.00;102020.81;5063649;28;20766;-75
2022/03/17 04:21:40;;;;;;;83.93;44.17;;;;;;;1.79;100.00;102029.31;5063079;28;20195;-74
2022/03/17 04:24:06;;;;;;;83.70;42.00;;;;;;;1.75;100.00;102024.91;5064920;28;20588;-74
2022/03/17 04:26:33;;;;;;;90.63;44.40;;;;;;;1.74;100.00;102021.44;5063886;28;20209;-74
2022/03/17 04:28:59;;;;;;;81.17;41.40;;;;;;;1.74;100.00;102029.16;5078797;28;20230;-74
2022/03/17 04:31:27;;;;;;;83.43;42.27;;;;;;;1.69;100.00;102030.75;5062428;28;20286;-75
2022/03/17 04:33:53;;;;;;;90.40;42.47;;;;;;;1.68;100.00;102031.56;5067370;28;20245;-74
2022/03/17 04:36:20;;;;;;;88.47;43.27;;;;;;;1.64;100.00;102033.16;5065221;28;20194;-74
2022/03/17 04:38:48;;;;;;;85.93;43.17;;;;;;;1.61;100.00;102027.91;5064780;28;20215;-74
2022/03/17 04:41:17;;;;;;;88.93;44.43;;;;;;;1.58;100.00;102027.78;5048308;28;20205;-74
2022/03/17 04:43:44;;;;;;;89.17;42.90;;;;;;;1.57;100.00;102033.78;5062725;28;20224;-74
2022/03/17 04:46:10;;;;;;;84.87;42.90;;;;;;;1.56;100.00;102031.16;5066018;28;20215;-74
2022/03/17 04:48:37;;;;;;;87.10;44.03;;;;;;;1.54;100.00;102035.38;5045492;28;20223;-74
2022/03/17 04:51:04;;;;;;;91.37;44.13;;;;;;;1.52;100.00;102030.16;5063039;28;20204;-74
2022/03/17 04:53:32;;;;;;;92.80;44.67;;;;;;;1.49;100.00;102028.34;5066153;28;20217;-74
2022/03/17 04:56:01;;;;;;;79.00;40.47;;;;;;;1.46;100.00;102041.13;5062770;28;20672;-74
2022/03/17 04:58:28;;;;;;;84.70;43.03;;;;;;;1.42;100.00;102022.97;5064577;28;20225;-74
2022/03/17 05:00:55;;;;;;;83.27;42.63;;;;;;;1.39;100.00;102025.44;5062547;28;20217;-74
2022/03/17 05:03:22;;;;;;;89.13;43.67;;;;;;;1.38;100.00;102026.25;5062679;28;20288;-74
2022/03/17 05:05:48;;;;;;;86.30;43.30;;;;;;;1.35;100.00;102027.03;5064346;28;20209;-74
2022/03/17 05:08:15;;;;;;;85.90;45.07;;;;;;;1.38;100.00;102028.84;5066509;28;20223;-74
2022/03/17 05:10:43;;;;;;;93.10;45.23;;;;;;;1.41;100.00;102026.38;5066467;28;20202;-74
2022/03/17 05:13:12;;;;;;;94.10;44.57;;;;;;;1.41;100.00;102031.53;5064232;28;20833;-74
2022/03/17 05:15:39;;;;;;;86.67;44.93;;;;;;;1.39;100.00;102028.00;5060046;28;20208;-74
2022/03/17 05:18:07;;;;;;;85.67;45.30;;;;;;;1.42;100.00;102030.69;5063940;28;20221;-74
2022/03/17 05:20:35;;;;;;;95.00;45.97;;;;;;;1.42;100.00;102031.53;5063257;28;20203;-74
2022/03/17 05:23:04;;;;;;;98.03;47.50;;;;;;;1.48;100.00;102020.63;5049961;28;20658;-74
2022/03/17 05:25:31;;;;;;;100.20;47.20;;;;;;;1.50;100.00;102014.69;5061032;28;20209;-74
2022/03/17 05:27:58;;;;;;;102.63;50.17;;;;;;;1.56;100.00;102018.28;5048066;28;20233;-74
2022/03/17 05:30:26;;;;;;;105.20;48.67;;;;;;;1.59;100.00;102018.41;5062843;28;20199;-74
2022/03/17 05:32:53;;;;;;;98.63;49.23;;;;;;;1.59;100.00;102020.97;5054933;28;20227;-74
2022/03/17 05:35:20;;;;;;;97.23;48.53;;;;;;;1.60;100.00;102023.59;5061140;28;20199;-74
2022/03/17 05:37:46;;;;;;;96.57;48.83;;;;;;;1.61;100.00;102027.91;5065019;28;20219;-74
2022/03/17 05:40:15;;;;;;;99.33;47.83;;;;;;;1.61;100.00;102034.75;5063831;28;20255;-74
2022/03/17 05:42:42;;;;;;;96.07;47.70;;;;;;;1.62;100.00;102029.66;5063348;28;20197;-74
2022/03/17 05:45:09;;;;;;;97.20;48.60;;;;;;;1.62;100.00;102028.75;5060779;28;20843;-74
2022/03/17 05:47:38;;;;;;;107.10;50.20;;;;;;;1.61;100.00;102034.75;5061311;28;20203;-74
2022/03/17 05:50:07;;;;;;;93.93;46.93;;;;;;;1.61;100.00;102039.88;5062440;28;20202;-74
2022/03/17 05:52:34;;;;;;;89.43;47.80;;;;;;;1.61;100.00;102047.59;5060284;28;20202;-74
2022/03/17 05:55:00;;;;;;;98.27;50.20;;;;;;;1.62;100.00;102050.22;5067307;28;20745;-74
2022/03/17 05:57:27;;;;;;;95.20;47.37;;;;;;;1.61;100.00;102038.19;5064613;28;20201;-74
2022/03/17 05:59:54;;;;;;;95.70;48.23;;;;;;;1.63;100.00;102033.97;5061773;28;20289;-74
2022/03/17 06:02:20;;;;;;;94.47;47.00;;;;;;;1.66;100.00;102030.63;5062184;28;20213;-74
2022/03/17 06:04:48;;;;;;;98.63;49.33;;;;;;;1.67;100.00;102030.69;5061677;28;20214;-74
2022/03/17 06:07:14;;;;;;;99.13;46.60;;;;;;;1.67;100.00;102028.13;5043382;28;20217;-74
2022/03/17 06:09:41;;;;;;;88.30;47.57;;;;;;;1.68;100.00;102024.69;5063158;28;20228;-73
2022/03/17 06:12:09;;;;;;;101.80;49.53;;;;;;;1.71;100.00;102034.22;5073310;28;20280;-74
2022/03/17 06:14:36;;;;;;;94.87;48.60;;;;;;;1.72;100.00;102040.25;5064060;28;20218;-74
2022/03/17 06:17:04;;;;;;;92.27;46.90;;;;;;;1.74;100.00;102034.31;5063295;28;20402;-73
2022/03/17 06:19:30;;;;;;;89.13;46.20;;;;;;;1.77;100.00;102042.13;5063619;28;20221;-73
2022/03/17 06:21:58;;;;;;;95.07;48.60;;;;;;;1.80;100.00;102038.81;5062935;28;20208;-73
2022/03/17 06:24:25;;;;;;;92.17;48.23;;;;;;;1.81;100.00;102040.53;5063401;28;20588;-74
2022/03/17 06:26:51;;;;;;;90.80;47.13;;;;;;;1.84;100.00;102045.78;5063627;28;20222;-76
2022/03/17 06:29:18;;;;;;;90.93;47.57;;;;;;;1.88;100.00;102055.34;5059296;28;20225;-76
2022/03/17 06:31:44;;;;;;;91.23;48.23;;;;;;;1.89;100.00;102054.53;5064030;28;20281;-76
2022/03/17 06:34:11;;;;;;;89.03;47.40;;;;;;;1.92;100.00;102059.78;5062521;28;20198;-76
2022/03/17 06:36:37;;;;;;;89.23;46.77;;;;;;;1.95;100.00;102059.84;5069043;28;20187;-76
2022/03/17 06:39:05;;;;;;;87.27;46.37;;;;;;;1.99;100.00;102054.00;5061921;28;20640;-76
2022/03/17 06:41:31;;;;;;;92.00;47.03;;;;;;;2.02;100.00;102059.25;5065968;28;20675;-76
2022/03/17 06:43:57;;;;;;;87.53;48.07;;;;;;;2.05;100.00;102053.31;5066253;28;20202;-76
2022/03/17 06:46:24;;;;;;;90.60;47.10;;;;;;;2.10;100.00;102049.19;5065497;28;20348;-76
2022/03/17 06:48:51;;;;;;;89.73;46.93;;;;;;;2.13;100.00;102054.44;5062584;28;20226;-74
2022/03/17 06:51:17;;;;;;;87.83;46.33;;;;;;;2.17;100.00;102066.56;5047968;28;20700;-74
2022/03/17 06:53:44;;;;;;;87.87;46.60;;;;;;;2.21;100.00;102068.41;5060672;28;20205;-73
2022/03/17 06:56:11;;;;;;;82.63;45.83;;;;;;;2.25;100.00;102072.84;5066568;28;20198;-74
2022/03/17 06:58:39;;;;;;;86.50;46.63;;;;;;;2.29;100.00;102076.38;5064459;28;20220;-74
2022/03/17 07:01:06;;;;;;;91.47;49.30;;;;;;;2.32;100.00;102084.16;5074875;28;20206;-74
2022/03/17 07:03:32;;;;;;;90.43;48.10;;;;;;;2.37;100.00;102085.19;5067889;28;20207;-73
2022/03/17 07:05:58;;;;;;;85.83;47.10;;;;;;;2.41;100.00;102079.34;5051147;28;20791;-74
2022/03/17 07:08:25;;;;;;;88.20;47.63;;;;;;;2.46;100.00;102088.06;5065502;28;20215;-74
2022/03/17 07:10:51;;;;;;;88.53;47.07;;;;;;;2.50;100.00;102089.03;5066487;28;20202;-74
2022/03/17 07:13:19;;;;;;;88.40;46.63;;;;;;;2.54;100.00;102092.56;5069121;28;20207;-74
2022/03/17 07:15:45;;;;;;;83.37;45.60;;;;;;;2.58;100.00;102097.84;5065184;28;20214;-74
2022/03/17 07:18:11;;;;;;;90.20;46.27;;;;;;;2.60;100.00;102096.22;5069574;28;21625;-74
2022/03/17 07:20:38;;;;;;;84.13;46.03;;;;;;;2.65;100.00;102101.47;5067443;28;20206;-74
2022/03/17 07:23:04;;;;;;;83.90;44.90;;;;;;;2.72;100.00;102094.81;5066929;28;20215;-74
2022/03/17 07:25:30;;;;;;;81.33;45.73;;;;;;;2.77;100.00;102096.69;5062593;28;20310;-74
2022/03/17 07:27:59;;;;;;;78.43;45.57;;;;;;;2.82;100.00;102094.28;5070370;28;20234;-74
2022/03/17 07:30:26;;;;;;;80.13;45.33;;;;;;;2.88;100.00;102099.59;5065910;28;20220;-74
2022/03/17 07:32:55;;;;;;;84.70;45.97;;;;;;;2.92;100.00;102104.03;5068060;28;20195;-73
2022/03/17 07:35:23;;;;;;;79.20;46.27;;;;;;;2.99;100.00;102110.19;5064564;28;20765;-74
2022/03/17 07:37:49;;;;;;;82.67;44.80;;;;;;;3.04;100.00;102113.78;5072149;28;20264;-74
2022/03/17 07:40:16;;;;;;;76.33;44.77;;;;;;;3.11;100.00;102114.84;5069550;28;20248;-73
2022/03/17 07:42:42;;;;;;;76.73;43.60;;;;;;;3.18;100.00;102119.34;5066958;28;21045;-73
2022/03/17 07:45:34;;;;;;;78.40;44.87;;;;;;;3.28;100.00;102112.75;5066404;28;20597;-74
2022/03/17 07:48:19;;;;;;;75.70;42.70;;;;;;;3.35;100.00;102105.22;5067113;28;20831;-74
2022/03/17 07:50:55;;;;;;;71.20;41.87;;;;;;;3.41;100.00;102104.50;5066084;28;20201;-74
2022/03/17 07:53:22;;;;;;;78.27;44.77;;;;;;;3.50;100.00;102120.25;5065917;28;20252;-74
2022/03/17 07:55:54;;;;;;;75.93;42.57;;;;;;;3.53;100.00;102124.59;5050741;28;20199;-74
2022/03/17 07:58:21;;;;;;;75.77;43.57;;;;;;;3.62;100.00;102117.09;5051581;28;20234;-74
2022/03/17 08:00:49;;;;;;;71.67;42.77;;;;;;;3.72;100.00;102120.78;5066933;28;20195;-74
2022/03/17 08:03:15;;;;;;;70.13;42.00;;;;;;;3.79;100.00;102118.41;5064272;28;20222;-74
2022/03/17 08:05:42;;;;;;;75.33;43.40;;;;;;;3.84;100.00;102115.09;5046728;28;20217;-74
2022/03/17 08:08:08;;;;;;;73.93;43.57;;;;;;;3.88;100.00;102122.94;5061033;28;20242;-74
2022/03/17 08:10:34;;;;;;;73.27;43.37;;;;;;;3.96;100.00;102116.25;5067562;28;20205;-74
2022/03/17 08:13:02;;;;;;;72.40;42.10;;;;;;;4.01;100.00;102118.06;5062160;28;20207;-74
2022/03/17 08:15:29;;;;;;;69.87;42.90;;;;;;;4.08;100.00;102109.63;5067367;28;20281;-74
2022/03/17 08:17:57;;;;;;;67.37;40.13;;;;;;;4.12;100.00;102122.66;5064824;28;20616;-74
2022/03/17 08:20:24;;;;;;;70.23;40.97;;;;;;;4.20;100.00;102125.44;5068914;28;20189;-73
2022/03/17 08:22:51;;;;;;;72.77;43.13;;;;;;;4.27;100.00;102110.97;5063998;28;20210;-74
2022/03/17 08:25:17;;;;;;;70.70;42.03;;;;;;;4.38;100.00;102112.09;5065125;28;20199;-74
2022/03/17 08:27:44;;;;;;;68.53;42.70;;;;;;;4.48;100.00;102110.59;5064672;28;20652;-74
2022/03/17 08:30:11;;;;;;;70.33;41.40;;;;;;;4.57;100.00;102104.75;5047381;28;20198;-74
2022/03/17 08:32:39;;;;;;;70.67;42.80;;;;;;;4.61;100.00;102109.13;5050831;28;20293;-74
2022/03/17 08:35:07;;;;;;;69.27;42.13;;;;;;;4.68;100.00;102103.28;5064667;28;20199;-74
2022/03/17 08:37:39;;;;;;;67.90;40.97;;;;;;;4.80;100.00;102110.41;5063952;28;20265;-74
2022/03/17 08:40:06;;;;;;;72.13;41.43;;;;;;;4.90;100.00;102118.41;5065931;28;20210;-74
2022/03/17 08:42:33;;;;;;;71.13;41.80;;;;;;;5.02;100.00;102114.34;5049745;28;20216;-74
2022/03/17 08:45:00;;;;;;;67.67;42.77;;;;;;;5.13;100.00;102110.25;5047547;28;20289;-74
2022/03/17 08:50:12;;;;;;;68.27;42.07;;;;;;;5.41;100.00;102114.25;5065622;28;20199;-74
2022/03/17 08:52:38;;;;;;;67.90;43.27;;;;;;;5.52;100.00;102119.59;5043890;28;20193;-74
2022/03/17 08:55:05;;;;;;;64.47;40.60;;;;;;;5.65;100.00;102133.66;5069658;28;20338;-74
2022/03/17 08:57:32;;;;;;;67.70;41.87;;;;;;;5.78;100.00;102143.38;5062337;28;20201;-74
2022/03/17 09:00:04;;;;;;;64.03;41.33;;;;;;;5.92;100.00;102145.34;5064277;28;20198;-74
2022/03/17 09:02:30;;;;;;;66.43;41.70;;;;;;;6.05;100.00;102150.81;5061317;28;20235;-74
2022/03/17 09:04:56;;;;;;;67.87;43.07;;;;;;;6.18;100.00;102145.81;5064149;28;20198;-74
2022/03/17 09:07:24;;;;;;;65.20;40.50;;;;;;;6.28;100.00;102150.31;5045077;28;20620;-74
2022/03/17 09:09:51;;;;;;;64.13;41.33;;;;;;;6.44;100.00;102148.84;5045274;28;20186;-74
2022/03/17 09:12:18;;;;;;;61.20;39.80;;;;;;;6.55;100.00;102147.25;5065011;28;20292;-74
2022/03/17 09:14:47;;;;;;;61.90;40.23;;;;;;;6.69;100.00;102149.19;5062812;28;21160;-74
2022/03/17 09:17:14;;;;;;;65.07;40.47;;;;;;;6.79;98.74;102149.34;5065329;28;20199;-74
2022/03/17 09:19:40;;;;;;;60.73;38.83;;;;;;;6.93;99.17;102144.34;5064079;28;20214;-74
2022/03/17 09:22:08;;;;;;;58.30;39.63;;;;;;;7.00;97.06;102146.16;5069625;28;20612;-74
2022/03/17 09:24:37;;;;;;;59.93;38.73;;;;;;;7.14;97.06;102146.34;5062675;28;20206;-74
2022/03/17 09:27:05;;;;;;;61.23;39.33;;;;;;;7.18;93.35;102155.91;5062745;28;20222;-74
2022/03/17 09:29:31;;;;;;;60.30;38.70;;;;;;;7.22;92.61;102143.81;5063400;28;20214;-74
2022/03/17 09:32:00;;;;;;;59.10;38.40;;;;;;;7.30;93.19;102147.41;5062713;28;20207;-75
2022/03/17 09:34:27;;;;;;;61.47;39.67;;;;;;;7.41;92.43;102154.44;5062336;28;20945;-74
2022/03/17 09:36:53;;;;;;;60.43;39.33;;;;;;;7.45;90.60;102157.06;5053245;28;20578;-74
2022/03/17 09:42:06;;;;;;;60.97;38.63;;;;;;;7.65;89.30;102165.09;5046263;28;20621;-74
2022/03/17 09:44:32;;;;;;;53.30;37.93;;;;;;;7.76;90.17;102166.06;5063218;28;20222;-74
2022/03/17 09:47:00;;;;;;;58.63;37.93;;;;;;;7.85;88.29;102167.88;5066375;28;20223;-74
2022/03/17 09:49:27;;;;;;;54.67;36.40;;;;;;;7.90;88.20;102167.94;5063421;28;20224;-74
2022/03/17 09:51:55;;;;;;;54.53;37.90;;;;;;;7.90;85.62;102178.31;5063871;28;20257;-74
2022/03/17 09:54:22;;;;;;;54.20;37.17;;;;;;;7.90;85.69;102167.94;5065120;28;20438;-74
2022/03/17 09:56:48;;;;;;;53.27;36.53;;;;;;;8.02;88.23;102168.03;5073413;28;20209;-74
2022/03/17 09:59:16;;;;;;;61.10;39.73;;;;;;;8.07;87.42;102165.47;5053934;28;20228;-74
2022/03/17 10:01:44;;;;;;;57.20;37.57;;;;;;;8.07;85.96;102168.06;5062051;28;20209;-74
2022/03/17 10:04:12;;;;;;;55.70;37.17;;;;;;;8.19;88.65;102164.72;5062161;28;20201;-75
2022/03/17 10:06:39;;;;;;;55.23;38.33;;;;;;;8.26;88.69;102169.09;5061600;28;20660;-75
2022/03/17 10:09:05;;;;;;;59.17;39.97;;;;;;;8.33;86.25;102170.88;5046729;28;20225;-75
2022/03/17 10:11:37;;;;;;;57.83;38.67;;;;;;;8.45;86.98;102176.22;5069940;28;20296;-74
2022/03/17 10:14:05;;;;;;;61.57;37.90;;;;;;;8.44;83.29;102177.09;5061345;28;20194;-75
2022/03/17 10:16:33;;;;;;;54.60;38.77;;;;;;;8.42;82.96;102165.78;5064535;28;20196;-74
2022/03/17 10:19:01;;;;;;;53.87;36.73;;;;;;;8.53;84.90;102168.47;5061186;28;20214;-74
2022/03/17 10:21:29;;;;;;;57.07;37.90;;;;;;;8.57;82.38;102177.19;5068399;28;20212;-75
2022/03/17 10:23:59;;;;;;;55.37;39.27;;;;;;;8.68;83.80;102171.16;5061494;28;20194;-75
2022/03/17 10:26:47;;;;;;;56.13;38.37;;;;;;;8.79;84.17;102170.38;5062740;28;20309;-74
2022/03/17 10:29:15;;;;;;;52.77;36.93;;;;;;;8.91;84.94;102168.69;5062584;28;20236;-74
2022/03/17 10:31:54;;;;;;;55.80;37.03;;;;;;;8.99;83.19;102175.66;5058428;28;20211;-75
2022/03/17 10:34:22;;;;;;;52.37;36.97;;;;;;;9.03;82.33;102180.03;5060964;28;20200;-74
2022/03/17 10:36:49;;;;;;;50.30;34.90;;;;;;;9.06;80.07;102183.53;5060940;28;20212;-74
2022/03/17 10:39:16;;;;;;;54.83;36.97;;;;;;;9.05;80.24;102186.13;5062638;28;20226;-74
2022/03/17 10:41:44;;;;;;;54.33;36.93;;;;;;;9.15;81.65;102181.84;5060221;28;20542;-74
2022/03/17 10:44:12;;;;;;;56.57;37.37;;;;;;;9.23;81.62;102188.81;5061644;28;20418;-74
2022/03/17 10:46:39;;;;;;;55.77;37.43;;;;;;;9.31;81.80;102180.19;5062800;28;20279;-74
2022/03/17 10:49:07;;;;;;;52.17;37.20;;;;;;;9.32;79.67;102185.34;5045223;28;20215;-75
2022/03/17 10:51:37;;;;;;;52.57;36.67;;;;;;;9.41;78.64;102184.53;5060020;28;20202;-74
2022/03/17 10:54:05;;;;;;;50.63;34.13;;;;;;;9.40;77.66;102186.28;5061089;28;20198;-74
2022/03/17 10:56:32;;;;;;;53.77;35.30;;;;;;;9.38;76.36;102184.53;5041211;28;20546;-75
2022/03/17 10:58:59;;;;;;;52.00;34.93;;;;;;;9.46;79.60;102186.31;5064753;28;20218;-74
2022/03/17 11:01:36;;;;;;;49.17;34.40;;;;;;;9.52;75.62;102190.66;5058588;28;20204;-74
2022/03/17 11:04:03;;;;;;;50.47;35.30;;;;;;;9.56;74.93;102195.00;5061488;28;20206;-75
2022/03/17 11:06:31;;;;;;;50.13;34.47;;;;;;;9.63;77.14;102195.91;5058830;28;20218;-75
2022/03/17 11:08:59;;;;;;;48.30;35.03;;;;;;;9.61;75.11;102197.63;5061974;28;20211;-74
2022/03/17 11:11:26;;;;;;;49.57;34.13;;;;;;;9.65;73.55;102194.16;5060797;28;20650;-74
2022/03/17 11:13:53;;;;;;;52.20;34.03;;;;;;;9.68;73.02;102190.72;5061061;28;20191;-75
2022/03/17 11:16:21;;;;;;;50.63;35.20;;;;;;;9.76;74.61;102192.47;5060841;28;20209;-75
2022/03/17 11:18:50;;;;;;;45.23;32.33;;;;;;;9.78;73.46;102193.34;5062704;28;20227;-75
2022/03/17 11:21:19;;;;;;;52.27;34.67;;;;;;;9.84;72.39;102197.69;5059593;28;20211;-74